< < Back
Terminal Aerodrome Forecast


Current Version              Previous Versions:   1  2  3  4  5  6  7  8  9  

Terminal Aerodrome Forecast

992
FTUS42 KFFC 171100
TAFPDK
TAF
KPDK 171126Z 1712/1812 08010KT P6SM SCT250
     FM171600 10010G18KT P6SM SCT040 BKN250
     FM180200 09007KT P6SM BKN035
     FM181000 07007KT P6SM BKN025=



Latest METAR

926
SAUS70 KWBC 171200 RRB
MTRPDK
METAR KPDK 171153Z VRB04KT 10SM CLR 04/00 A3041 RMK AO2 SLP303 T00440000
10078 20039 53018


USA.gov is the U.S. government's official web portal to all federal, state and local government web resources and services.